Time;durP1;ratioP1;P1;durP2;ratioP2;P2;SDS_P1;SDS_P2;PMS_P1;PMS_P2;Temp;Humidity;BMP_temperature;BMP_pressure;BME280_temperature;BME280_humidity;BME280_pressure;Samples;Min_cycle;Max_cycle;Signal;HPM_P1;HPM_P2
2021/12/29 00:00:54;;;;;;;;;;;10.80;99.90;;;;;;7342653;19;111576;-84
2021/12/29 00:03:21;;;;;;;;;;;10.80;99.90;;;;;;7344530;19;112090;-84
2021/12/29 00:05:48;;;;;;;;;;;10.80;99.90;;;;;;7350018;19;109303;-83
2021/12/29 00:08:15;;;;;;;;;;;10.80;99.90;;;;;;7343391;19;112044;-84
2021/12/29 00:10:42;;;;;;;;;;;10.80;99.90;;;;;;7343311;19;109592;-84
2021/12/29 00:13:09;;;;;;;;;;;10.80;99.90;;;;;;7344030;19;114761;-83
2021/12/29 00:15:36;;;;;;;;;;;10.80;99.90;;;;;;7341621;19;110536;-83
2021/12/29 00:18:03;;;;;;;;;;;10.80;99.90;;;;;;7342135;19;109653;-83
2021/12/29 00:20:31;;;;;;;;;;;10.90;99.90;;;;;;7342279;19;111277;-84
2021/12/29 00:23:00;;;;;;;;;;;10.90;99.90;;;;;;7340463;19;112079;-83
2021/12/29 00:25:26;;;;;;;;;;;10.90;99.90;;;;;;7344467;19;109312;-85
2021/12/29 00:27:55;;;;;;;;;;;10.90;99.90;;;;;;7348442;19;111063;-85
2021/12/29 00:30:23;;;;;;;;;;;10.80;99.90;;;;;;7344265;19;109580;-84
2021/12/29 00:32:50;;;;;;;;;;;10.80;99.90;;;;;;7341013;19;111010;-83
2021/12/29 00:35:18;;;;;;;;;;;10.80;99.90;;;;;;7342160;19;112056;-84
2021/12/29 00:37:44;;;;;;;;;;;10.80;99.90;;;;;;7340761;19;109322;-83
2021/12/29 00:40:12;;;;;;;;;;;10.80;99.90;;;;;;7342780;19;110962;-85
2021/12/29 00:42:39;;;;;;;;;;;10.80;99.90;;;;;;7339846;19;111989;-85
2021/12/29 00:45:06;;;;;;;;;;;10.80;99.90;;;;;;7344028;19;109710;-84
2021/12/29 00:47:35;;;;;;;;;;;10.80;99.90;;;;;;7342288;19;111073;-83
2021/12/29 00:50:05;;;;;;;;;;;10.80;99.90;;;;;;7348438;19;112054;-84
2021/12/29 00:52:32;;;;;;;;;;;10.80;99.90;;;;;;7342591;19;110908;-84
2021/12/29 00:55:00;;;;;;;;;;;10.80;99.90;;;;;;7343197;19;115158;-84
2021/12/29 00:57:27;;;;;;;;;;;10.80;99.90;;;;;;7342290;19;109582;-85
2021/12/29 00:59:54;;;;;;;;;;;10.80;99.90;;;;;;7341271;19;110732;-83
2021/12/29 01:02:21;;;;;;;;;;;10.70;99.90;;;;;;7340626;19;111207;-85
2021/12/29 01:04:48;;;;;;;;;;;10.70;99.90;;;;;;7341630;19;109385;-84
2021/12/29 01:07:15;;;;;;;;;;;10.70;99.90;;;;;;7340035;19;111101;-84
2021/12/29 01:09:44;;;;;;;;;;;10.70;99.90;;;;;;7342026;19;111897;-83
2021/12/29 01:12:11;;;;;;;;;;;10.70;99.90;;;;;;7353631;19;109911;-84
2021/12/29 01:14:43;;;;;;;;;;;10.70;99.90;;;;;;7347219;19;112138;-84
2021/12/29 01:17:10;;;;;;;;;;;10.70;99.90;;;;;;7347668;19;109244;-85
2021/12/29 01:19:37;;;;;;;;;;;10.70;99.90;;;;;;7349967;19;110661;-83
2021/12/29 01:22:04;;;;;;;;;;;10.70;99.90;;;;;;7346580;19;112315;-85
2021/12/29 01:24:31;;;;;;;;;;;10.70;99.90;;;;;;7349025;19;109883;-86
2021/12/29 01:26:58;;;;;;;;;;;10.70;99.90;;;;;;7349835;19;110889;-83
2021/12/29 01:29:29;;;;;;;;;;;10.70;99.90;;;;;;7347936;19;112198;-83
2021/12/29 01:31:57;;;;;;;;;;;10.70;99.90;;;;;;7350375;19;109355;-84
2021/12/29 01:34:24;;;;;;;;;;;10.70;99.90;;;;;;7350906;19;109595;-84
2021/12/29 01:36:51;;;;;;;;;;;10.70;99.90;;;;;;7347213;19;109392;-85
2021/12/29 01:39:19;;;;;;;;;;;10.70;99.90;;;;;;7348225;19;110990;-83
2021/12/29 01:41:47;;;;;;;;;;;10.70;99.90;;;;;;7347492;19;111738;-83
2021/12/29 01:44:15;;;;;;;;;;;10.70;99.90;;;;;;7346706;19;109513;-85
2021/12/29 01:46:43;;;;;;;;;;;10.70;99.90;;;;;;7347078;19;112455;-84
2021/12/29 01:49:10;;;;;;;;;;;10.70;99.90;;;;;;7347140;19;110436;-86
2021/12/29 01:51:47;;;;;;;;;;;10.70;99.90;;;;;;7349006;19;109379;-85
2021/12/29 01:54:16;;;;;;;;;;;10.70;99.90;;;;;;7353416;19;110997;-86
2021/12/29 01:56:44;;;;;;;;;;;10.70;99.90;;;;;;7346287;19;109467;-85
2021/12/29 01:59:11;;;;;;;;;;;10.70;99.90;;;;;;7348924;19;112325;-85
2021/12/29 02:01:38;;;;;;;;;;;10.70;99.90;;;;;;7344901;19;113323;-85
2021/12/29 02:04:06;;;;;;;;;;;10.70;99.90;;;;;;7348214;19;109402;-86
2021/12/29 02:06:33;;;;;;;;;;;10.70;99.90;;;;;;7345861;19;110738;-86
2021/12/29 02:09:00;;;;;;;;;;;10.70;99.90;;;;;;7344876;19;112299;-84
2021/12/29 02:11:30;;;;;;;;;;;10.70;99.90;;;;;;7342925;19;109933;-82
2021/12/29 02:13:58;;;;;;;;;;;10.70;99.90;;;;;;7342595;19;111146;-84
2021/12/29 02:16:25;;;;;;;;;;;10.70;99.90;;;;;;7350432;19;111844;-86
2021/12/29 02:18:53;;;;;;;;;;;10.70;99.90;;;;;;7348714;19;111377;-86
2021/12/29 02:21:21;;;;;;;;;;;10.70;99.90;;;;;;7346352;19;111355;-84
2021/12/29 02:26:29;;;;;;;;;;;10.70;99.90;;;;;;7348721;19;109058;-85
2021/12/29 02:28:56;;;;;;;;;;;10.60;99.90;;;;;;7346296;19;110649;-86
2021/12/29 02:31:23;;;;;;;;;;;10.60;99.90;;;;;;7349351;19;109207;-84
2021/12/29 02:33:52;;;;;;;;;;;10.70;99.90;;;;;;7346432;19;111492;-85
2021/12/29 02:36:19;;;;;;;;;;;10.60;99.90;;;;;;7345621;19;111833;-85
2021/12/29 02:38:51;;;;;;;;;;;10.60;99.90;;;;;;7353431;19;109393;-84
2021/12/29 02:41:18;;;;;;;;;;;10.60;99.90;;;;;;7347662;19;112051;-84
2021/12/29 02:43:45;;;;;;;;;;;10.60;99.90;;;;;;7345595;19;109414;-84
2021/12/29 02:46:15;;;;;;;;;;;10.60;99.90;;;;;;7347344;19;110087;-85
2021/12/29 02:48:49;;;;;;;;;;;10.60;99.90;;;;;;7346264;19;112020;-84
2021/12/29 02:51:16;;;;;;;;;;;10.60;99.90;;;;;;7345180;19;109145;-84
2021/12/29 02:53:43;;;;;;;;;;;10.60;99.90;;;;;;7347298;19;111199;-85
2021/12/29 02:56:10;;;;;;;;;;;10.60;99.90;;;;;;7345076;19;110540;-84
2021/12/29 02:58:36;;;;;;;;;;;10.70;99.90;;;;;;7348004;19;109471;-85
2021/12/29 03:01:06;;;;;;;;;;;10.60;99.90;;;;;;7351897;19;111739;-85
2021/12/29 03:03:36;;;;;;;;;;;10.60;99.90;;;;;;7345082;19;109490;-85
2021/12/29 03:06:04;;;;;;;;;;;10.70;99.90;;;;;;7345784;19;110512;-84
2021/12/29 03:08:32;;;;;;;;;;;10.70;99.90;;;;;;7345950;19;110443;-84
2021/12/29 03:10:58;;;;;;;;;;;10.70;99.90;;;;;;7346455;19;109817;-84
2021/12/29 03:13:27;;;;;;;;;;;10.70;99.90;;;;;;7346754;19;113697;-85
2021/12/29 03:15:54;;;;;;;;;;;10.60;99.90;;;;;;7348060;19;112377;-84
2021/12/29 03:18:21;;;;;;;;;;;10.60;99.90;;;;;;7346346;19;109364;-84
2021/12/29 03:20:48;;;;;;;;;;;10.60;99.90;;;;;;7348412;19;112316;-84
2021/12/29 03:23:15;;;;;;;;;;;10.60;99.90;;;;;;7349125;19;112023;-85
2021/12/29 03:25:42;;;;;;;;;;;10.60;99.90;;;;;;7347090;19;110690;-84
2021/12/29 03:28:09;;;;;;;;;;;10.60;99.90;;;;;;7345229;19;114865;-84
2021/12/29 03:30:38;;;;;;;;;;;10.60;99.90;;;;;;7346931;19;109315;-84
2021/12/29 03:33:09;;;;;;;;;;;10.60;99.90;;;;;;7343455;19;110962;-84
2021/12/29 03:35:38;;;;;;;;;;;10.70;99.90;;;;;;7345877;19;112251;-85
2021/12/29 03:38:06;;;;;;;;;;;10.70;99.90;;;;;;7343843;19;109342;-84
2021/12/29 03:40:35;;;;;;;;;;;10.70;99.90;;;;;;7344277;19;111177;-84
2021/12/29 03:43:05;;;;;;;;;;;10.60;99.90;;;;;;7344058;19;112015;-84
2021/12/29 03:45:32;;;;;;;;;;;10.60;99.90;;;;;;7351485;19;109336;-84
2021/12/29 03:47:59;;;;;;;;;;;10.60;99.90;;;;;;7346286;19;111934;-84
2021/12/29 03:50:26;;;;;;;;;;;10.60;99.90;;;;;;7343475;19;109355;-84
2021/12/29 03:52:52;;;;;;;;;;;10.60;99.90;;;;;;7346145;19;111829;-84
2021/12/29 03:55:20;;;;;;;;;;;10.60;99.90;;;;;;7344568;19;111980;-84
2021/12/29 03:57:47;;;;;;;;;;;10.60;99.90;;;;;;7345682;19;109793;-84
2021/12/29 04:00:15;;;;;;;;;;;10.60;99.90;;;;;;7345175;19;109111;-84
2021/12/29 04:02:43;;;;;;;;;;;10.60;99.90;;;;;;7343759;19;111960;-84
2021/12/29 04:05:11;;;;;;;;;;;10.60;99.90;;;;;;7349793;19;109819;-85
2021/12/29 04:07:38;;;;;;;;;;;10.60;99.90;;;;;;7344965;19;111366;-84
2021/12/29 04:10:06;;;;;;;;;;;10.60;99.90;;;;;;7343537;19;109487;-84
2021/12/29 04:12:32;;;;;;;;;;;10.60;99.90;;;;;;7345069;19;111046;-84
2021/12/29 04:15:00;;;;;;;;;;;10.60;99.90;;;;;;7345728;19;111841;-84
2021/12/29 04:17:36;;;;;;;;;;;10.60;99.90;;;;;;7345399;19;109445;-84
2021/12/29 04:22:51;;;;;;;;;;;10.60;99.90;;;;;;7342791;19;112087;-84
2021/12/29 04:25:23;;;;;;;;;;;10.60;99.90;;;;;;7343481;19;109836;-84
2021/12/29 04:27:51;;;;;;;;;;;10.60;99.90;;;;;;7347899;19;110068;-84
2021/12/29 04:30:18;;;;;;;;;;;10.60;99.90;;;;;;7344735;19;109360;-84
2021/12/29 04:32:45;;;;;;;;;;;10.60;99.90;;;;;;7344733;19;111011;-85
2021/12/29 04:35:12;;;;;;;;;;;10.60;99.90;;;;;;7344110;19;111908;-84
2021/12/29 04:37:39;;;;;;;;;;;10.60;99.90;;;;;;7344196;19;109331;-84
2021/12/29 04:40:07;;;;;;;;;;;10.60;99.90;;;;;;7343719;19;110717;-85
2021/12/29 04:42:34;;;;;;;;;;;10.60;99.90;;;;;;7342058;19;111773;-85
2021/12/29 04:45:01;;;;;;;;;;;10.60;99.90;;;;;;7344911;19;109483;-85
2021/12/29 04:47:29;;;;;;;;;;;10.60;99.90;;;;;;7352683;19;111250;-84
2021/12/29 04:50:00;;;;;;;;;;;10.60;99.90;;;;;;7356360;19;113084;-85
2021/12/29 04:52:30;;;;;;;;;;;10.60;99.90;;;;;;7351756;19;109636;-84
2021/12/29 04:54:57;;;;;;;;;;;10.60;99.90;;;;;;7350352;19;112059;-85
2021/12/29 04:57:25;;;;;;;;;;;10.60;99.90;;;;;;7348829;19;109535;-84
2021/12/29 04:59:52;;;;;;;;;;;10.60;99.90;;;;;;7351312;19;111017;-86
2021/12/29 05:02:19;;;;;;;;;;;10.60;99.90;;;;;;7348305;19;111776;-84
2021/12/29 05:04:55;;;;;;;;;;;10.50;99.90;;;;;;7350193;19;109844;-84
2021/12/29 05:10:08;;;;;;;;;;;10.60;99.90;;;;;;7350672;19;112179;-85
2021/12/29 05:12:34;;;;;;;;;;;10.60;99.90;;;;;;7355999;19;109229;-85
2021/12/29 05:15:01;;;;;;;;;;;10.60;99.90;;;;;;7349332;19;111809;-84
2021/12/29 05:17:28;;;;;;;;;;;10.60;99.90;;;;;;7348555;19;109373;-85
2021/12/29 05:19:55;;;;;;;;;;;10.50;99.90;;;;;;7349277;19;111138;-86
2021/12/29 05:22:22;;;;;;;;;;;10.50;99.90;;;;;;7349486;19;112080;-84
2021/12/29 05:24:49;;;;;;;;;;;10.50;99.90;;;;;;7348718;19;109987;-86
2021/12/29 05:27:17;;;;;;;;;;;10.50;99.90;;;;;;7348893;19;113430;-84
2021/12/29 05:29:43;;;;;;;;;;;10.50;99.90;;;;;;7349978;19;111749;-85
2021/12/29 05:32:11;;;;;;;;;;;10.50;99.90;;;;;;7349475;19;110278;-85
2021/12/29 05:34:38;;;;;;;;;;;10.50;99.90;;;;;;7354077;19;111713;-85
2021/12/29 05:37:04;;;;;;;;;;;10.50;99.90;;;;;;7349001;19;109795;-85
2021/12/29 05:39:31;;;;;;;;;;;10.50;99.90;;;;;;7348386;19;111015;-84
2021/12/29 05:41:58;;;;;;;;;;;10.50;99.90;;;;;;7348532;19;111930;-85
2021/12/29 05:44:25;;;;;;;;;;;10.50;99.90;;;;;;7346911;19;109432;-85
2021/12/29 05:46:52;;;;;;;;;;;10.50;99.90;;;;;;7350090;19;110935;-84
2021/12/29 05:49:19;;;;;;;;;;;10.50;99.90;;;;;;7348842;19;110433;-84
2021/12/29 05:51:46;;;;;;;;;;;10.50;99.90;;;;;;7347794;19;109339;-85
2021/12/29 05:54:13;;;;;;;;;;;10.50;99.90;;;;;;7349641;19;110779;-85
2021/12/29 05:56:40;;;;;;;;;;;10.50;99.90;;;;;;7352436;19;112110;-85
2021/12/29 05:59:07;;;;;;;;;;;10.50;99.90;;;;;;7349319;19;111026;-85
2021/12/29 06:01:35;;;;;;;;;;;10.50;99.90;;;;;;7346857;19;112445;-84
2021/12/29 06:04:02;;;;;;;;;;;10.50;99.90;;;;;;7346077;19;109429;-84
2021/12/29 06:06:29;;;;;;;;;;;10.50;99.90;;;;;;7347242;19;110968;-84
2021/12/29 06:08:56;;;;;;;;;;;10.50;99.90;;;;;;7348076;19;112502;-85
2021/12/29 06:11:23;;;;;;;;;;;10.50;99.90;;;;;;7347144;19;109848;-84
2021/12/29 06:13:50;;;;;;;;;;;10.40;99.90;;;;;;7348004;19;110956;-84
2021/12/29 06:16:17;;;;;;;;;;;10.40;99.90;;;;;;7349182;19;110520;-85
2021/12/29 06:18:44;;;;;;;;;;;10.40;99.90;;;;;;7348371;19;110659;-84
2021/12/29 06:21:16;;;;;;;;;;;10.40;99.90;;;;;;7348546;19;111874;-83
2021/12/29 06:23:44;;;;;;;;;;;10.40;99.90;;;;;;7346800;19;109364;-85
2021/12/29 06:26:11;;;;;;;;;;;10.40;99.90;;;;;;7348333;19;111432;-84
2021/12/29 06:28:38;;;;;;;;;;;10.40;99.90;;;;;;7346093;19;111830;-83
2021/12/29 06:31:05;;;;;;;;;;;10.40;99.90;;;;;;7348624;19;109538;-84
2021/12/29 06:33:32;;;;;;;;;;;10.40;99.90;;;;;;7347379;19;111037;-84
2021/12/29 06:35:59;;;;;;;;;;;10.40;99.90;;;;;;7346212;19;112710;-84
2021/12/29 06:38:26;;;;;;;;;;;10.40;99.90;;;;;;7352060;19;109377;-84
2021/12/29 06:40:53;;;;;;;;;;;10.40;99.90;;;;;;7347357;19;112509;-84
2021/12/29 06:43:20;;;;;;;;;;;10.40;99.90;;;;;;7346238;19;110583;-84
2021/12/29 06:45:47;;;;;;;;;;;10.40;99.90;;;;;;7345215;19;110950;-83
2021/12/29 06:48:14;;;;;;;;;;;10.40;99.90;;;;;;7344997;19;111782;-84
2021/12/29 06:50:42;;;;;;;;;;;10.40;99.90;;;;;;7347259;19;110218;-84
2021/12/29 06:53:09;;;;;;;;;;;10.40;99.90;;;;;;7345298;19;110214;-84
2021/12/29 06:55:36;;;;;;;;;;;10.30;99.90;;;;;;7346705;19;111566;-84
2021/12/29 06:58:03;;;;;;;;;;;10.40;99.90;;;;;;7348698;19;109856;-84
2021/12/29 07:00:29;;;;;;;;;;;10.30;99.90;;;;;;7348241;19;110637;-84
2021/12/29 07:02:57;;;;;;;;;;;10.30;99.90;;;;;;7346583;19;109415;-84
2021/12/29 07:05:25;;;;;;;;;;;10.40;99.90;;;;;;7347158;19;111700;-84
2021/12/29 07:07:52;;;;;;;;;;;10.40;99.90;;;;;;7347675;19;111605;-84
2021/12/29 07:10:19;;;;;;;;;;;10.30;99.90;;;;;;7345248;19;110527;-84
2021/12/29 07:12:46;;;;;;;;;;;10.40;99.90;;;;;;7345284;19;109186;-84
2021/12/29 07:15:13;;;;;;;;;;;10.30;99.90;;;;;;7346627;19;112581;-84
2021/12/29 07:17:40;;;;;;;;;;;10.30;99.90;;;;;;7347173;19;109296;-85
2021/12/29 07:20:07;;;;;;;;;;;10.30;99.90;;;;;;7346851;19;111072;-84
2021/12/29 07:22:34;;;;;;;;;;;10.30;99.90;;;;;;7350767;19;112359;-85
2021/12/29 07:25:01;;;;;;;;;;;10.30;99.90;;;;;;7345132;19;111324;-84
2021/12/29 07:27:28;;;;;;;;;;;10.30;99.90;;;;;;7345166;19;116057;-84
2021/12/29 07:29:54;;;;;;;;;;;10.30;99.90;;;;;;7345975;19;109220;-85
2021/12/29 07:32:21;;;;;;;;;;;10.30;99.90;;;;;;7346303;19;110737;-84
2021/12/29 07:34:48;;;;;;;;;;;10.20;99.90;;;;;;7346861;19;111683;-85
2021/12/29 07:37:15;;;;;;;;;;;10.20;99.90;;;;;;7345978;19;109792;-84
2021/12/29 07:39:42;;;;;;;;;;;10.20;99.90;;;;;;7346333;19;109214;-84
2021/12/29 07:42:09;;;;;;;;;;;10.20;99.90;;;;;;7345425;19;112203;-84
2021/12/29 07:44:36;;;;;;;;;;;10.10;99.90;;;;;;7349562;19;109295;-84
2021/12/29 07:47:05;;;;;;;;;;;10.20;99.90;;;;;;7343235;19;111964;-84
2021/12/29 07:49:33;;;;;;;;;;;10.10;99.90;;;;;;7346006;19;109657;-84
2021/12/29 07:52:00;;;;;;;;;;;10.10;99.90;;;;;;7345166;19;109218;-85
2021/12/29 07:54:27;;;;;;;;;;;10.10;99.90;;;;;;7343386;19;112988;-84
2021/12/29 07:56:54;;;;;;;;;;;10.00;99.90;;;;;;7345981;19;109319;-84
2021/12/29 07:59:21;;;;;;;;;;;10.00;99.90;;;;;;7346095;19;111070;-84
2021/12/29 08:01:48;;;;;;;;;;;10.00;99.90;;;;;;7344067;19;112465;-83
2021/12/29 08:04:16;;;;;;;;;;;10.00;99.90;;;;;;7343515;19;109297;-85
2021/12/29 08:06:43;;;;;;;;;;;10.00;99.90;;;;;;7349328;19;111819;-84
2021/12/29 08:09:10;;;;;;;;;;;10.00;99.90;;;;;;7344177;19;109565;-83
2021/12/29 08:11:40;;;;;;;;;;;10.00;99.90;;;;;;7344924;19;111390;-85
2021/12/29 08:14:07;;;;;;;;;;;9.90;99.90;;;;;;7339179;19;112051;-85
2021/12/29 08:16:34;;;;;;;;;;;9.90;99.90;;;;;;7343062;19;110496;-85
2021/12/29 08:19:01;;;;;;;;;;;9.90;99.90;;;;;;7342429;19;110789;-85
2021/12/29 08:21:28;;;;;;;;;;;9.90;99.90;;;;;;7343447;19;112313;-85
2021/12/29 08:23:55;;;;;;;;;;;9.90;99.90;;;;;;7343238;19;110321;-85
2021/12/29 08:26:22;;;;;;;;;;;9.90;99.90;;;;;;7349966;19;111907;-86
2021/12/29 08:28:50;;;;;;;;;;;9.90;99.90;;;;;;7344159;19;109726;-85
2021/12/29 08:31:17;;;;;;;;;;;9.80;99.90;;;;;;7344380;19;110864;-85
2021/12/29 08:33:45;;;;;;;;;;;9.90;99.90;;;;;;7345485;19;111723;-85
2021/12/29 08:36:11;;;;;;;;;;;9.90;99.90;;;;;;7344783;19;109214;-85
2021/12/29 08:38:38;;;;;;;;;;;9.80;99.90;;;;;;7345633;19;111423;-85
2021/12/29 08:41:05;;;;;;;;;;;9.80;99.90;;;;;;7340955;19;112058;-85
2021/12/29 08:43:32;;;;;;;;;;;9.90;99.90;;;;;;7345516;19;109885;-85
2021/12/29 08:45:59;;;;;;;;;;;9.90;99.90;;;;;;7343096;19;110809;-85
2021/12/29 08:48:27;;;;;;;;;;;9.90;99.90;;;;;;7349260;19;112203;-85
2021/12/29 08:50:57;;;;;;;;;;;9.90;99.90;;;;;;7344705;19;109339;-85
2021/12/29 08:53:24;;;;;;;;;;;9.90;99.90;;;;;;7344563;19;110529;-86
2021/12/29 08:55:51;;;;;;;;;;;9.90;99.90;;;;;;7342450;19;109334;-86
2021/12/29 08:58:18;;;;;;;;;;;9.90;99.90;;;;;;7343401;19;111352;-86
2021/12/29 09:00:45;;;;;;;;;;;9.90;99.90;;;;;;7343094;19;112004;-85
2021/12/29 09:03:13;;;;;;;;;;;9.90;99.90;;;;;;7343218;19;109267;-86
2021/12/29 09:05:40;;;;;;;;;;;9.90;99.90;;;;;;7340354;19;111216;-87
2021/12/29 09:08:07;;;;;;;;;;;9.90;99.90;;;;;;7341275;19;111733;-85
2021/12/29 09:10:34;;;;;;;;;;;10.00;99.90;;;;;;7349880;19;109485;-86
2021/12/29 09:13:01;;;;;;;;;;;10.00;99.90;;;;;;7342750;19;112209;-85
2021/12/29 09:15:28;;;;;;;;;;;10.00;99.90;;;;;;7345497;19;110143;-85
2021/12/29 09:17:54;;;;;;;;;;;10.00;99.90;;;;;;7341789;19;109833;-86
2021/12/29 09:20:30;;;;;;;;;;;10.10;99.90;;;;;;7342896;19;110654;-86
2021/12/29 09:23:02;;;;;;;;;;;10.10;99.90;;;;;;7338216;19;109906;-85
2021/12/29 09:25:35;;;;;;;;;;;10.10;99.90;;;;;;7341542;19;113755;-87
2021/12/29 09:28:02;;;;;;;;;;;10.10;99.90;;;;;;7339318;19;112093;-86
2021/12/29 09:30:30;;;;;;;;;;;10.10;99.90;;;;;;7342146;19;109304;-86
2021/12/29 09:32:57;;;;;;;;;;;10.20;99.90;;;;;;7353009;19;111961;-87
2021/12/29 09:35:24;;;;;;;;;;;10.20;99.90;;;;;;7344094;19;109407;-86
2021/12/29 09:37:52;;;;;;;;;;;10.20;99.90;;;;;;7346359;19;110803;-86
2021/12/29 09:40:20;;;;;;;;;;;10.20;99.90;;;;;;7346390;19;112214;-86
2021/12/29 09:42:48;;;;;;;;;;;10.30;99.90;;;;;;7350005;19;109299;-86
2021/12/29 09:45:15;;;;;;;;;;;10.30;99.90;;;;;;7345610;19;111519;-86
2021/12/29 09:47:42;;;;;;;;;;;10.30;99.90;;;;;;7349076;19;111724;-85
2021/12/29 09:50:11;;;;;;;;;;;10.30;99.90;;;;;;7346828;19;109451;-86
2021/12/29 09:52:38;;;;;;;;;;;10.30;99.90;;;;;;7348904;19;109414;-86
2021/12/29 09:55:09;;;;;;;;;;;10.40;99.90;;;;;;7353642;19;112042;-86
2021/12/29 09:57:36;;;;;;;;;;;10.40;99.90;;;;;;7347428;19;111243;-86
2021/12/29 10:00:08;;;;;;;;;;;10.40;99.90;;;;;;7347911;19;111682;-86
2021/12/29 10:02:35;;;;;;;;;;;10.50;99.90;;;;;;7348158;19;109310;-85
2021/12/29 10:05:03;;;;;;;;;;;10.50;99.90;;;;;;7346961;19;111196;-86
2021/12/29 10:07:33;;;;;;;;;;;10.50;99.90;;;;;;7345666;19;112042;-86
2021/12/29 10:10:00;;;;;;;;;;;10.50;99.90;;;;;;7347813;19;109281;-86
2021/12/29 10:12:27;;;;;;;;;;;10.50;99.90;;;;;;7345956;19;111704;-85
2021/12/29 10:15:02;;;;;;;;;;;10.50;99.90;;;;;;7346895;19;111866;-85
2021/12/29 10:17:32;;;;;;;;;;;10.60;99.90;;;;;;7355650;19;108962;-85
2021/12/29 10:20:02;;;;;;;;;;;10.60;99.90;;;;;;7348139;19;111973;-85
2021/12/29 10:22:29;;;;;;;;;;;10.60;99.90;;;;;;7345687;19;109800;-86
2021/12/29 10:25:06;;;;;;;;;;;10.70;99.90;;;;;;7348116;19;109540;-86
2021/12/29 10:27:33;;;;;;;;;;;10.70;99.90;;;;;;7345663;19;112066;-86
2021/12/29 10:30:03;;;;;;;;;;;10.70;99.90;;;;;;7349025;19;110577;-86
2021/12/29 10:32:30;;;;;;;;;;;10.70;99.90;;;;;;7347517;19;111926;-86
2021/12/29 10:34:57;;;;;;;;;;;10.70;99.90;;;;;;7348646;19;111801;-85
2021/12/29 10:37:24;;;;;;;;;;;10.70;99.90;;;;;;7352980;19;109336;-85
2021/12/29 10:39:52;;;;;;;;;;;10.70;99.90;;;;;;7347573;19;111739;-86
2021/12/29 10:42:20;;;;;;;;;;;10.80;99.90;;;;;;7347522;19;109437;-86
2021/12/29 10:44:49;;;;;;;;;;;10.80;99.90;;;;;;7347955;19;109585;-86
2021/12/29 10:47:19;;;;;;;;;;;10.80;99.90;;;;;;7348964;19;111684;-87
2021/12/29 10:49:53;;;;;;;;;;;10.80;99.90;;;;;;7347967;19;109221;-86
2021/12/29 10:52:32;;;;;;;;;;;10.80;99.90;;;;;;7347672;19;111684;-86
2021/12/29 10:55:00;;;;;;;;;;;10.80;99.90;;;;;;7348689;19;110867;-86
2021/12/29 10:57:27;;;;;;;;;;;10.80;99.90;;;;;;7346388;19;109367;-86
2021/12/29 11:00:02;;;;;;;;;;;10.80;99.90;;;;;;7352331;19;109277;-86
2021/12/29 11:02:31;;;;;;;;;;;10.90;99.90;;;;;;7349429;19;109171;-87
2021/12/29 11:05:00;;;;;;;;;;;10.90;99.90;;;;;;7347777;19;114362;-86
2021/12/29 11:07:28;;;;;;;;;;;10.90;99.90;;;;;;7345763;19;111979;-85
2021/12/29 11:09:55;;;;;;;;;;;10.90;99.90;;;;;;7348870;19;109339;-87
2021/12/29 11:12:24;;;;;;;;;;;10.90;99.90;;;;;;7347390;19;113807;-87
2021/12/29 11:14:53;;;;;;;;;;;10.90;99.90;;;;;;7347126;19;110701;-86
2021/12/29 11:17:21;;;;;;;;;;;10.90;99.90;;;;;;7347608;19;109342;-87
2021/12/29 11:19:50;;;;;;;;;;;11.00;99.90;;;;;;7347266;19;110968;-85
2021/12/29 11:22:18;;;;;;;;;;;11.00;99.90;;;;;;7352581;19;114695;-86
2021/12/29 11:24:52;;;;;;;;;;;11.00;99.90;;;;;;7348136;19;110977;-86
2021/12/29 11:27:19;;;;;;;;;;;11.10;99.90;;;;;;7345704;19;112017;-86
2021/12/29 11:29:50;;;;;;;;;;;11.10;99.90;;;;;;7347455;19;109163;-86
2021/12/29 11:32:21;;;;;;;;;;;11.10;99.90;;;;;;7348218;19;111058;-86
2021/12/29 11:34:58;;;;;;;;;;;11.20;99.90;;;;;;7345366;19;112174;-86
2021/12/29 11:37:25;;;;;;;;;;;11.20;99.90;;;;;;7346591;19;109292;-86
2021/12/29 11:39:52;;;;;;;;;;;11.20;99.90;;;;;;7348018;19;110957;-86
2021/12/29 11:42:19;;;;;;;;;;;11.20;99.90;;;;;;7346769;19;111995;-85
2021/12/29 11:44:46;;;;;;;;;;;11.20;99.90;;;;;;7352237;19;109368;-86
2021/12/29 11:47:14;;;;;;;;;;;11.20;99.90;;;;;;7346090;19;114690;-86
2021/12/29 11:49:40;;;;;;;;;;;11.20;99.90;;;;;;7346802;19;109802;-86
2021/12/29 11:52:17;;;;;;;;;;;11.20;99.90;;;;;;7346623;19;111192;-86
2021/12/29 11:55:03;;;;;;;;;;;11.20;99.90;;;;;;7345688;19;112003;-86
2021/12/29 11:57:30;;;;;;;;;;;11.30;99.90;;;;;;7344359;19;109302;-86
2021/12/29 12:00:17;;;;;;;;;;;11.20;99.90;;;;;;7345063;19;113937;-86
2021/12/29 12:02:46;;;;;;;;;;;11.20;99.90;;;;;;7345349;19;112692;-86
2021/12/29 12:05:15;;;;;;;;;;;11.20;99.90;;;;;;7346384;19;109758;-87
2021/12/29 12:07:42;;;;;;;;;;;11.30;99.90;;;;;;7350822;19;112944;-86
2021/12/29 12:10:28;;;;;;;;;;;11.30;99.90;;;;;;7345330;19;109393;-86
2021/12/29 12:12:55;;;;;;;;;;;11.30;99.90;;;;;;7346912;19;113269;-87
2021/12/29 12:15:30;;;;;;;;;;;11.40;99.90;;;;;;7345699;19;112277;-86
2021/12/29 12:18:05;;;;;;;;;;;11.40;99.90;;;;;;7346308;19;109346;-87
2021/12/29 12:20:39;;;;;;;;;;;11.40;99.90;;;;;;7345351;19;111900;-87
2021/12/29 12:23:06;;;;;;;;;;;11.30;99.90;;;;;;7345441;19;112058;-87
2021/12/29 12:25:34;;;;;;;;;;;11.40;99.90;;;;;;7344222;19;109715;-87
2021/12/29 12:28:02;;;;;;;;;;;11.40;99.90;;;;;;7359141;19;109493;-86
2021/12/29 12:30:40;;;;;;;;;;;11.40;99.90;;;;;;7344234;19;109359;-86
2021/12/29 12:33:12;;;;;;;;;;;11.40;99.90;;;;;;7341844;19;111060;-87
2021/12/29 12:35:40;;;;;;;;;;;11.40;99.90;;;;;;7341036;19;111954;-86
2021/12/29 12:38:12;;;;;;;;;;;11.40;99.90;;;;;;7344018;19;109693;-87
2021/12/29 12:40:43;;;;;;;;;;;11.40;99.90;;;;;;7337659;19;111479;-86
2021/12/29 12:43:13;;;;;;;;;;;11.40;99.90;;;;;;7342783;19;112274;-86
2021/12/29 12:45:42;;;;;;;;;;;11.40;99.90;;;;;;7342856;19;109458;-86
2021/12/29 12:48:11;;;;;;;;;;;11.40;99.90;;;;;;7344785;19;111842;-87
2021/12/29 12:50:39;;;;;;;;;;;11.40;99.90;;;;;;7347126;19;112210;-85
2021/12/29 12:53:07;;;;;;;;;;;11.40;99.90;;;;;;7342454;19;110184;-86
2021/12/29 12:55:48;;;;;;;;;;;11.40;99.90;;;;;;7343068;19;114832;-86
2021/12/29 12:58:17;;;;;;;;;;;11.40;99.90;;;;;;7344236;19;109372;-87
2021/12/29 13:00:47;;;;;;;;;;;11.40;99.90;;;;;;7342958;19;111001;-87
2021/12/29 13:03:16;;;;;;;;;;;11.40;99.90;;;;;;7342480;19;112183;-87
2021/12/29 13:05:45;;;;;;;;;;;11.40;99.90;;;;;;7344106;19;109303;-86
2021/12/29 13:08:14;;;;;;;;;;;11.50;99.90;;;;;;7349171;19;112303;-86
2021/12/29 13:10:48;;;;;;;;;;;11.50;99.90;;;;;;7350538;19;112798;-87
2021/12/29 13:13:20;;;;;;;;;;;11.50;99.90;;;;;;7354039;19;109415;-85
2021/12/29 13:15:49;;;;;;;;;;;11.50;99.90;;;;;;7349426;19;111163;-87
2021/12/29 13:18:17;;;;;;;;;;;11.60;99.90;;;;;;7348196;19;109389;-87
2021/12/29 13:20:44;;;;;;;;;;;11.60;99.90;;;;;;7350494;19;111832;-88
2021/12/29 13:23:15;;;;;;;;;;;11.60;99.90;;;;;;7348367;19;112336;-83
2021/12/29 13:25:43;;;;;;;;;;;11.60;99.90;;;;;;7348561;19;109860;-86
2021/12/29 13:28:15;;;;;;;;;;;11.70;99.90;;;;;;7350501;19;110970;-86
2021/12/29 13:30:45;;;;;;;;;;;11.70;99.90;;;;;;7349130;19;110724;-84
2021/12/29 13:33:13;;;;;;;;;;;11.70;99.90;;;;;;7351967;19;109270;-83
2021/12/29 13:35:43;;;;;;;;;;;11.70;99.90;;;;;;7355269;19;109585;-87
2021/12/29 13:38:10;;;;;;;;;;;11.70;99.90;;;;;;7351326;19;109399;-86
2021/12/29 13:40:42;;;;;;;;;;;11.70;99.90;;;;;;7349333;19;110800;-83
2021/12/29 13:43:10;;;;;;;;;;;11.70;99.90;;;;;;7347910;19;112377;-83
2021/12/29 13:45:38;;;;;;;;;;;11.70;99.90;;;;;;7350729;19;109411;-83
2021/12/29 13:48:06;;;;;;;;;;;11.70;99.90;;;;;;7349460;19;111004;-83
2021/12/29 13:50:33;;;;;;;;;;;11.70;99.90;;;;;;7349706;19;112289;-83
2021/12/29 13:53:02;;;;;;;;;;;11.70;99.90;;;;;;7349511;19;109457;-83
2021/12/29 13:55:30;;;;;;;;;;;11.70;99.90;;;;;;7349544;19;110875;-83
2021/12/29 13:57:57;;;;;;;;;;;11.70;99.90;;;;;;7351827;19;112488;-82
2021/12/29 14:00:25;;;;;;;;;;;11.70;99.90;;;;;;7344924;19;111201;-82
2021/12/29 14:02:51;;;;;;;;;;;11.70;99.90;;;;;;7344502;19;112297;-82
2021/12/29 14:05:19;;;;;;;;;;;11.70;99.90;;;;;;7348024;19;109781;-83
2021/12/29 14:07:46;;;;;;;;;;;11.60;99.90;;;;;;7345102;19;109383;-82
2021/12/29 14:10:14;;;;;;;;;;;11.60;99.90;;;;;;7348439;19;111838;-83
2021/12/29 14:12:41;;;;;;;;;;;11.60;99.90;;;;;;7348134;19;109818;-83
2021/12/29 14:15:16;;;;;;;;;;;11.60;99.90;;;;;;7348166;19;110653;-82
2021/12/29 14:17:44;;;;;;;;;;;11.60;99.90;;;;;;7347135;19;113230;-82
2021/12/29 14:20:14;;;;;;;;;;;11.60;99.90;;;;;;7353216;19;110142;-82